Rhea I Bouchard — WRQ4509 — position and weather

sailwx.info

Track history (hours):
 
Tides and Currents Weather Stations Pressure Air Temp Water Temp Dewpoint Dewpoint Depression Visibility Wind Speed Wind Dir Waves Ship Positions

Rhea I Bouchard

Owner: BOUCHARD TRANSPORTATION, MELVILLE, NY. More information available from US FCC via Universal Licensing System and Coast Guard Vessel Documentation Center.

Last reported at 2017-Dec-11 17:00 UTC. Time now 2017-Dec-14 00:21 UTC.
Position N 42°20' W 070°58'.

Length 162 m; draft 5.6 m.

MMSI: 367006540.

Date/timePositionNaut miles runAvg speedWind from/ knotsBaromVisibWave heightAir tempDewpointWater temp
2017-Dec-11 17:00N 42°20' W 070°58'0 0.0
2017-Dec-11 16:23N 42°20' W 070°58'0 0.0
2017-Dec-11 15:59N 42°20' W 070°58'0 0.0
2017-Dec-11 15:26N 42°20' W 070°58'0 0.0
2017-Dec-11 14:53N 42°20' W 070°58'0 0.1
2017-Dec-11 14:26N 42°20' W 070°58'0 0.0
2017-Dec-11 13:59N 42°20' W 070°58'0 0.0
2017-Dec-11 13:29N 42°20' W 070°58'0 0.0
2017-Dec-11 12:59N 42°20' W 070°58'0 0.0
2017-Dec-11 12:29N 42°20' W 070°58'0 0.0
2017-Dec-11 11:59N 42°20' W 070°58'0 0.0
2017-Dec-11 11:29N 42°20' W 070°58'0 0.0
2017-Dec-11 10:59N 42°20' W 070°58'0 0.0
2017-Dec-11 10:26N 42°20' W 070°58'0 0.0
2017-Dec-11 09:59N 42°20' W 070°58'0 0.0
2017-Dec-11 09:29N 42°20' W 070°58'0 0.1
2017-Dec-11 08:56N 42°20' W 070°59'0 0.1
2017-Dec-11 08:17N 42°20' W 070°59'0 0.0
2017-Dec-11 07:56N 42°20' W 070°59'0 0.0
2017-Dec-11 07:20N 42°20' W 070°59'0 0.1
2017-Dec-11 06:44N 42°20' W 070°58'0 0.0
2017-Dec-11 06:29N 42°20' W 070°58'0 0.0
2017-Dec-11 05:56N 42°20' W 070°58'0 0.1
2017-Dec-11 05:23N 42°20' W 070°58'0 0.0
2017-Dec-11 04:53N 42°20' W 070°58'0 0.0
2017-Dec-11 04:26N 42°20' W 070°58'0 0.0
2017-Dec-11 04:01N 42°20' W 070°58'0 0.1
2017-Dec-11 03:31N 42°20' W 070°58'0 0.0
2017-Dec-11 03:01N 42°20' W 070°58'0 0.0
2017-Dec-11 02:31N 42°20' W 070°58'0 0.0
2017-Dec-11 02:00N 42°20' W 070°58'0 0.0
2017-Dec-11 01:30N 42°20' W 070°58'2 3.3
2017-Dec-11 01:00N 42°21' W 070°56'4 8.6
2017-Dec-11 00:31N 42°23' W 070°51'510.0
2017-Dec-11 00:01N 42°21' W 070°46'88 7.3
2017-Dec-10 11:55N 41°14' W 072°04'510.8
2017-Dec-10 11:29N 41°14' W 072°10'511.3
2017-Dec-10 11:01N 41°12' W 072°16'611.2
2017-Dec-10 10:31N 41°10' W 072°23'510.4
2017-Dec-10 10:00N 41°08' W 072°30'5 9.8
2017-Dec-10 09:30N 41°07' W 072°36'5 9.9
2017-Dec-10 09:00N 41°06' W 072°42'5 9.5
2017-Dec-10 08:31N 41°05' W 072°49'36 9.3
2017-Dec-10 04:39N 40°56' W 073°35'2 9.8
2017-Dec-10 04:25N 40°55' W 073°37'4 9.9
2017-Dec-10 04:00N 40°53' W 073°42'5 9.7
2017-Dec-10 03:30N 40°50' W 073°47'4 7.6
2017-Dec-10 03:00N 40°48' W 073°51'4 8.3
2017-Dec-10 02:30N 40°47' W 073°56'4 8.8
2017-Dec-10 02:00N 40°43' W 073°58'4 8.0
2017-Dec-10 01:31N 40°40' W 074°02'4 7.4
2017-Dec-10 01:00N 40°39' W 074°07'0 0.3
2017-Dec-10 00:30N 40°39' W 074°07'0 0.0
2017-Dec-10 00:01N 40°39' W 074°07'0 0.0
2017-Dec-09 23:30N 40°39' W 074°07'0 0.0
2017-Dec-09 23:00N 40°39' W 074°07'0 0.0
2017-Dec-09 22:30N 40°39' W 074°07'0 0.0
2017-Dec-09 22:00N 40°39' W 074°07'0 0.0
2017-Dec-09 21:30N 40°39' W 074°07'0 0.0
2017-Dec-09 21:00N 40°39' W 074°07'0 0.0
2017-Dec-09 20:30N 40°39' W 074°07'0 0.0
2017-Dec-09 20:00N 40°39' W 074°07'0 0.0
2017-Dec-09 19:30N 40°39' W 074°07'0 0.0
2017-Dec-09 19:00N 40°39' W 074°07'0 0.0
2017-Dec-09 18:30N 40°39' W 074°07'0 0.0
2017-Dec-09 18:00N 40°39' W 074°07'0 0.0
2017-Dec-09 17:30N 40°39' W 074°07'0 0.0
2017-Dec-09 17:01N 40°39' W 074°07'0 0.0
2017-Dec-09 16:31N 40°39' W 074°07'0 0.0
2017-Dec-09 16:00N 40°39' W 074°07'0 0.0
2017-Dec-09 15:30N 40°39' W 074°07'0 0.0
2017-Dec-09 15:00N 40°39' W 074°07'0 0.0
2017-Dec-09 14:30N 40°39' W 074°07'0 0.0
2017-Dec-09 14:00N 40°39' W 074°07'0 0.0
2017-Dec-09 13:30N 40°39' W 074°07'0 0.0
2017-Dec-09 13:00N 40°39' W 074°07'0 0.0
2017-Dec-09 12:30N 40°39' W 074°07'0 0.0
2017-Dec-09 12:00N 40°39' W 074°07'0 0.3
2017-Dec-09 11:30N 40°39' W 074°07'1 2.8
2017-Dec-09 11:01N 40°39' W 074°05'0 0.0
2017-Dec-09 10:30N 40°39' W 074°05'0 0.0
2017-Dec-09 10:01N 40°39' W 074°05'0 0.0
2017-Dec-09 09:30N 40°39' W 074°05'0 0.6
2017-Dec-09 08:57N 40°39' W 074°05'0 0.0
2017-Dec-09 08:27N 40°39' W 074°05'0 0.0
2017-Dec-09 07:57N 40°39' W 074°05'0 0.0
2017-Dec-09 06:45N 40°39' W 074°05'0 0.0
2017-Dec-09 06:30N 40°39' W 074°05'0 0.0
2017-Dec-09 04:24N 40°39' W 074°05'0 0.0
2017-Dec-09 03:56N 40°39' W 074°05'1 1.9
2017-Dec-09 03:09N 40°38' W 074°07'0 0.0
2017-Dec-09 02:50N 40°38' W 074°07'0 0.0
2017-Dec-09 02:27N 40°38' W 074°07'0 0.0
2017-Dec-09 01:14N 40°38' W 074°07'0 0.0
2017-Dec-09 00:57N 40°38' W 074°07'0 0.0
2017-Dec-09 00:27N 40°38' W 074°07'1 3.2
2017-Dec-09 00:00N 40°39' W 074°05'1 0.5
2017-Dec-08 22:11N 40°39' W 074°07'1 6.9
2017-Dec-08 22:00N 40°39' W 074°08'1 0.9
2017-Dec-08 20:26N 40°39' W 074°10'2 4.8
2017-Dec-08 19:58N 40°39' W 074°07'0 0.0
2017-Dec-08 19:25N 40°39' W 074°07'0 0.0
2017-Dec-08 18:55N 40°39' W 074°07'0 0.0
2017-Dec-08 18:25N 40°39' W 074°07'0 0.0
2017-Dec-08 17:55N 40°39' W 074°07'0 0.0
2017-Dec-08 17:25N 40°39' W 074°07'1 3.0
2017-Dec-08 17:00N 40°39' W 074°06'0 0.9
2017-Dec-08 16:30N 40°39' W 074°05'2 3.5
2017-Dec-08 16:01N 40°38' W 074°03'3 5.9
2017-Dec-08 15:29N 40°35' W 074°01'0 0.2
2017-Dec-08 14:59N 40°35' W 074°01'0 0.0
2017-Dec-08 14:29N 40°35' W 074°01'0 0.0
2017-Dec-08 13:59N 40°35' W 074°01'0 0.0
2017-Dec-08 13:29N 40°35' W 074°01'0 0.1
2017-Dec-08 12:59N 40°35' W 074°01'0 0.0
2017-Dec-08 12:20N 40°35' W 074°01'0 0.0
2017-Dec-08 11:56N 40°35' W 074°01'0 0.0
2017-Dec-08 11:29N 40°35' W 074°01'0 0.0
2017-Dec-08 10:59N 40°35' W 074°01'0 0.0
2017-Dec-08 10:29N 40°35' W 074°01'0 0.0
2017-Dec-08 09:59N 40°35' W 074°01'0 0.0
2017-Dec-08 09:29N 40°35' W 074°01'0 0.0
2017-Dec-08 08:44N 40°35' W 074°01'0 0.0
2017-Dec-08 08:29N 40°35' W 074°01'0 0.0
2017-Dec-08 07:50N 40°35' W 074°01'0 0.0
2017-Dec-08 07:23N 40°35' W 074°01'0 0.0
2017-Dec-08 06:56N 40°35' W 074°01'0 0.0
2017-Dec-08 06:29N 40°35' W 074°01'0 0.0
2017-Dec-08 05:59N 40°35' W 074°01'0 0.0
2017-Dec-08 05:29N 40°35' W 074°01'0 0.1
2017-Dec-08 04:56N 40°35' W 074°01'0 0.0
2017-Dec-08 04:26N 40°35' W 074°01'0 0.1
2017-Dec-08 03:59N 40°35' W 074°01'0 0.0
2017-Dec-08 03:26N 40°36' W 074°01'0 0.0
2017-Dec-08 02:53N 40°36' W 074°01'0 0.0
2017-Dec-08 02:29N 40°36' W 074°01'0 0.0
2017-Dec-08 01:53N 40°36' W 074°01'0 0.0
2017-Dec-08 01:29N 40°36' W 074°01'0 0.1
2017-Dec-08 00:59N 40°35' W 074°01'0 0.0
2017-Dec-08 00:17N 40°35' W 074°01'0 0.0
2017-Dec-07 23:38N 40°35' W 074°01'0 0.0
2017-Dec-07 23:29N 40°35' W 074°01'0 0.0
2017-Dec-07 22:59N 40°35' W 074°01'0 0.0
2017-Dec-07 22:20N 40°35' W 074°01'0 0.0
2017-Dec-07 21:41N 40°35' W 074°01'0 0.0
2017-Dec-07 21:29N 40°35' W 074°01'0 0.0
2017-Dec-07 20:56N 40°35' W 074°01'0 0.1
2017-Dec-07 20:29N 40°35' W 074°01'1 2.5
2017-Dec-07 19:59N 40°34' W 074°02'4 7.5
2017-Dec-07 19:29N 40°31' W 073°59'183 8.5
2017-Dec-06 21:51N 42°05' W 070°31'410.2
2017-Dec-06 21:30N 42°09' W 070°32'510.3
2017-Dec-06 21:00N 42°13' W 070°35'  
2017-Dec-04 10:31N 40°38' W 074°07'0 0.0
2017-Dec-04 10:01N 40°38' W 074°07'0 0.0
2017-Dec-04 09:31N 40°38' W 074°07'0 0.0
2017-Dec-04 09:01N 40°38' W 074°07'0 0.0
2017-Dec-04 08:31N 40°38' W 074°07'0 0.0
2017-Dec-04 08:00N 40°38' W 074°07'0 0.0
2017-Dec-04 07:30N 40°38' W 074°07'0 0.0
2017-Dec-04 07:01N 40°38' W 074°07'0 0.0
2017-Dec-04 06:30N 40°38' W 074°07'0 0.0
2017-Dec-04 06:00N 40°38' W 074°07'0 0.0
2017-Dec-04 05:30N 40°38' W 074°07'0 0.0
2017-Dec-04 05:01N 40°38' W 074°07'0 0.0
2017-Dec-04 04:30N 40°38' W 074°07'0 0.0
2017-Dec-04 04:00N 40°39' W 074°07'4 7.5
2017-Dec-04 03:30N 40°38' W 074°12'4 6.9
2017-Dec-04 02:53N 40°33' W 074°13'2 4.2
2017-Dec-04 02:30N 40°33' W 074°15'0 0.0
2017-Dec-04 02:00N 40°33' W 074°15'3 3.2
2017-Dec-04 01:04N 40°30' W 074°13'2 8.4
2017-Dec-04 00:51N 40°30' W 074°11'410.2
2017-Dec-04 00:26N 40°29' W 074°06'4 9.7
2017-Dec-04 00:01N 40°29' W 074°00'610.3
2017-Dec-03 23:28N 40°27' W 073°53'131 9.9
2017-Dec-03 10:17N 41°30' W 071°21'3 9.3
2017-Dec-03 09:59N 41°33' W 071°20'5 9.5
2017-Dec-03 09:30N 41°37' W 071°18'5 9.5
2017-Dec-03 09:00N 41°41' W 071°19'5 9.4
2017-Dec-03 08:30N 41°45' W 071°23'3 5.8
2017-Dec-03 08:00N 41°48' W 071°24'0 0.0
2017-Dec-02 16:38N 41°48' W 071°24'0 1.4
2017-Dec-02 16:18N 41°48' W 071°23'2 7.1
2017-Dec-02 16:00N 41°46' W 071°23'4 8.2
2017-Dec-02 15:30N 41°42' W 071°20'5 8.8
2017-Dec-02 14:59N 41°38' W 071°18'2 2.7
2017-Dec-02 14:22N 41°36' W 071°17'0 0.0
2017-Dec-02 13:40N 41°36' W 071°17'0 0.0
2017-Dec-02 13:28N 41°36' W 071°17'0 0.0
2017-Dec-02 12:58N 41°36' W 071°17'0 0.0
2017-Dec-02 12:28N 41°36' W 071°17'0 0.1
2017-Dec-02 11:58N 41°36' W 071°17'0 0.0
2017-Dec-02 07:52N 41°36' W 071°17'0 0.1
2017-Dec-02 07:28N 41°36' W 071°17'0 0.0
2017-Dec-02 06:58N 41°36' W 071°17'0 0.0
2017-Dec-02 06:22N 41°36' W 071°17'0 0.0
2017-Dec-02 05:58N 41°36' W 071°17'0 0.0
2017-Dec-02 05:22N 41°36' W 071°17'0 0.0
2017-Dec-02 05:00N 41°36' W 071°17'0 0.0
2017-Dec-02 04:30N 41°36' W 071°17'0 0.0
2017-Dec-02 04:00N 41°36' W 071°17'0 0.0
2017-Dec-02 03:28N 41°36' W 071°17'0 0.0
2017-Dec-02 03:00N 41°36' W 071°17'0 0.0
2017-Dec-02 02:30N 41°36' W 071°17'0 0.0
2017-Dec-02 02:00N 41°36' W 071°17'0 0.0
2017-Dec-02 01:30N 41°36' W 071°17'0 0.0
2017-Dec-02 00:58N 41°36' W 071°17'0 0.0
2017-Dec-02 00:30N 41°36' W 071°17'0 0.0
2017-Dec-01 23:58N 41°36' W 071°17'2 3.2
2017-Dec-01 23:21N 41°35' W 071°19'3 7.3
2017-Dec-01 22:55N 41°32' W 071°20'  
Track history (hours):
 
Tides and Currents Weather Stations Pressure Air Temp Water Temp Dewpoint Dewpoint Depression Visibility Wind Speed Wind Dir Waves Ship Positions

Rhea I Bouchard

Owner: BOUCHARD TRANSPORTATION, MELVILLE, NY. More information available from US FCC via Universal Licensing System and Coast Guard Vessel Documentation Center.

Last reported at 2017-Dec-11 17:00 UTC. Time now 2017-Dec-14 00:21 UTC.
Position N 42°20' W 070°58'.

Length 162 m; draft 5.6 m.

MMSI: 367006540.

Date/timePositionNaut miles runAvg speedWind from/ knotsBaromVisibWave heightAir tempDewpointWater temp
2017-Dec-11 17:00N 42°20' W 070°58'0 0.0
2017-Dec-11 16:23N 42°20' W 070°58'0 0.0
2017-Dec-11 15:59N 42°20' W 070°58'0 0.0
2017-Dec-11 15:26N 42°20' W 070°58'0 0.0
2017-Dec-11 14:53N 42°20' W 070°58'0 0.1
2017-Dec-11 14:26N 42°20' W 070°58'0 0.0
2017-Dec-11 13:59N 42°20' W 070°58'0 0.0
2017-Dec-11 13:29N 42°20' W 070°58'0 0.0
2017-Dec-11 12:59N 42°20' W 070°58'0 0.0
2017-Dec-11 12:29N 42°20' W 070°58'0 0.0
2017-Dec-11 11:59N 42°20' W 070°58'0 0.0
2017-Dec-11 11:29N 42°20' W 070°58'0 0.0
2017-Dec-11 10:59N 42°20' W 070°58'0 0.0
2017-Dec-11 10:26N 42°20' W 070°58'0 0.0
2017-Dec-11 09:59N 42°20' W 070°58'0 0.0
2017-Dec-11 09:29N 42°20' W 070°58'0 0.1
2017-Dec-11 08:56N 42°20' W 070°59'0 0.1
2017-Dec-11 08:17N 42°20' W 070°59'0 0.0
2017-Dec-11 07:56N 42°20' W 070°59'0 0.0
2017-Dec-11 07:20N 42°20' W 070°59'0 0.1
2017-Dec-11 06:44N 42°20' W 070°58'0 0.0
2017-Dec-11 06:29N 42°20' W 070°58'0 0.0
2017-Dec-11 05:56N 42°20' W 070°58'0 0.1
2017-Dec-11 05:23N 42°20' W 070°58'0 0.0
2017-Dec-11 04:53N 42°20' W 070°58'0 0.0
2017-Dec-11 04:26N 42°20' W 070°58'0 0.0
2017-Dec-11 04:01N 42°20' W 070°58'0 0.1
2017-Dec-11 03:31N 42°20' W 070°58'0 0.0
2017-Dec-11 03:01N 42°20' W 070°58'0 0.0
2017-Dec-11 02:31N 42°20' W 070°58'0 0.0
2017-Dec-11 02:00N 42°20' W 070°58'0 0.0
2017-Dec-11 01:30N 42°20' W 070°58'2 3.3
2017-Dec-11 01:00N 42°21' W 070°56'4 8.6
2017-Dec-11 00:31N 42°23' W 070°51'510.0
2017-Dec-11 00:01N 42°21' W 070°46'88 7.3
2017-Dec-10 11:55N 41°14' W 072°04'510.8
2017-Dec-10 11:29N 41°14' W 072°10'511.3
2017-Dec-10 11:01N 41°12' W 072°16'611.2
2017-Dec-10 10:31N 41°10' W 072°23'510.4
2017-Dec-10 10:00N 41°08' W 072°30'5 9.8
2017-Dec-10 09:30N 41°07' W 072°36'5 9.9
2017-Dec-10 09:00N 41°06' W 072°42'5 9.5
2017-Dec-10 08:31N 41°05' W 072°49'36 9.3
2017-Dec-10 04:39N 40°56' W 073°35'2 9.8
2017-Dec-10 04:25N 40°55' W 073°37'4 9.9
2017-Dec-10 04:00N 40°53' W 073°42'5 9.7
2017-Dec-10 03:30N 40°50' W 073°47'4 7.6
2017-Dec-10 03:00N 40°48' W 073°51'4 8.3
2017-Dec-10 02:30N 40°47' W 073°56'4 8.8
2017-Dec-10 02:00N 40°43' W 073°58'4 8.0
2017-Dec-10 01:31N 40°40' W 074°02'4 7.4
2017-Dec-10 01:00N 40°39' W 074°07'0 0.3
2017-Dec-10 00:30N 40°39' W 074°07'0 0.0
2017-Dec-10 00:01N 40°39' W 074°07'0 0.0
2017-Dec-09 23:30N 40°39' W 074°07'0 0.0
2017-Dec-09 23:00N 40°39' W 074°07'0 0.0
2017-Dec-09 22:30N 40°39' W 074°07'0 0.0
2017-Dec-09 22:00N 40°39' W 074°07'0 0.0
2017-Dec-09 21:30N 40°39' W 074°07'0 0.0
2017-Dec-09 21:00N 40°39' W 074°07'0 0.0
2017-Dec-09 20:30N 40°39' W 074°07'0 0.0
2017-Dec-09 20:00N 40°39' W 074°07'0 0.0
2017-Dec-09 19:30N 40°39' W 074°07'0 0.0
2017-Dec-09 19:00N 40°39' W 074°07'0 0.0
2017-Dec-09 18:30N 40°39' W 074°07'0 0.0
2017-Dec-09 18:00N 40°39' W 074°07'0 0.0
2017-Dec-09 17:30N 40°39' W 074°07'0 0.0
2017-Dec-09 17:01N 40°39' W 074°07'0 0.0
2017-Dec-09 16:31N 40°39' W 074°07'0 0.0
2017-Dec-09 16:00N 40°39' W 074°07'0 0.0
2017-Dec-09 15:30N 40°39' W 074°07'0 0.0
2017-Dec-09 15:00N 40°39' W 074°07'0 0.0
2017-Dec-09 14:30N 40°39' W 074°07'0 0.0
2017-Dec-09 14:00N 40°39' W 074°07'0 0.0
2017-Dec-09 13:30N 40°39' W 074°07'0 0.0
2017-Dec-09 13:00N 40°39' W 074°07'0 0.0
2017-Dec-09 12:30N 40°39' W 074°07'0 0.0
2017-Dec-09 12:00N 40°39' W 074°07'0 0.3
2017-Dec-09 11:30N 40°39' W 074°07'1 2.8
2017-Dec-09 11:01N 40°39' W 074°05'0 0.0
2017-Dec-09 10:30N 40°39' W 074°05'0 0.0
2017-Dec-09 10:01N 40°39' W 074°05'0 0.0
2017-Dec-09 09:30N 40°39' W 074°05'0 0.6
2017-Dec-09 08:57N 40°39' W 074°05'0 0.0
2017-Dec-09 08:27N 40°39' W 074°05'0 0.0
2017-Dec-09 07:57N 40°39' W 074°05'0 0.0
2017-Dec-09 06:45N 40°39' W 074°05'0 0.0
2017-Dec-09 06:30N 40°39' W 074°05'0 0.0
2017-Dec-09 04:24N 40°39' W 074°05'0 0.0
2017-Dec-09 03:56N 40°39' W 074°05'1 1.9
2017-Dec-09 03:09N 40°38' W 074°07'0 0.0
2017-Dec-09 02:50N 40°38' W 074°07'0 0.0
2017-Dec-09 02:27N 40°38' W 074°07'0 0.0
2017-Dec-09 01:14N 40°38' W 074°07'0 0.0
2017-Dec-09 00:57N 40°38' W 074°07'0 0.0
2017-Dec-09 00:27N 40°38' W 074°07'1 3.2
2017-Dec-09 00:00N 40°39' W 074°05'1 0.5
2017-Dec-08 22:11N 40°39' W 074°07'1 6.9
2017-Dec-08 22:00N 40°39' W 074°08'1 0.9
2017-Dec-08 20:26N 40°39' W 074°10'2 4.8
2017-Dec-08 19:58N 40°39' W 074°07'0 0.0
2017-Dec-08 19:25N 40°39' W 074°07'0 0.0
2017-Dec-08 18:55N 40°39' W 074°07'0 0.0
2017-Dec-08 18:25N 40°39' W 074°07'0 0.0
2017-Dec-08 17:55N 40°39' W 074°07'0 0.0
2017-Dec-08 17:25N 40°39' W 074°07'1 3.0
2017-Dec-08 17:00N 40°39' W 074°06'0 0.9
2017-Dec-08 16:30N 40°39' W 074°05'2 3.5
2017-Dec-08 16:01N 40°38' W 074°03'3 5.9
2017-Dec-08 15:29N 40°35' W 074°01'0 0.2
2017-Dec-08 14:59N 40°35' W 074°01'0 0.0
2017-Dec-08 14:29N 40°35' W 074°01'0 0.0
2017-Dec-08 13:59N 40°35' W 074°01'0 0.0
2017-Dec-08 13:29N 40°35' W 074°01'0 0.1
2017-Dec-08 12:59N 40°35' W 074°01'0 0.0
2017-Dec-08 12:20N 40°35' W 074°01'0 0.0
2017-Dec-08 11:56N 40°35' W 074°01'0 0.0
2017-Dec-08 11:29N 40°35' W 074°01'0 0.0
2017-Dec-08 10:59N 40°35' W 074°01'0 0.0
2017-Dec-08 10:29N 40°35' W 074°01'0 0.0
2017-Dec-08 09:59N 40°35' W 074°01'0 0.0
2017-Dec-08 09:29N 40°35' W 074°01'0 0.0
2017-Dec-08 08:44N 40°35' W 074°01'0 0.0
2017-Dec-08 08:29N 40°35' W 074°01'0 0.0
2017-Dec-08 07:50N 40°35' W 074°01'0 0.0
2017-Dec-08 07:23N 40°35' W 074°01'0 0.0
2017-Dec-08 06:56N 40°35' W 074°01'0 0.0
2017-Dec-08 06:29N 40°35' W 074°01'0 0.0
2017-Dec-08 05:59N 40°35' W 074°01'0 0.0
2017-Dec-08 05:29N 40°35' W 074°01'0 0.1
2017-Dec-08 04:56N 40°35' W 074°01'0 0.0
2017-Dec-08 04:26N 40°35' W 074°01'0 0.1
2017-Dec-08 03:59N 40°35' W 074°01'0 0.0
2017-Dec-08 03:26N 40°36' W 074°01'0 0.0
2017-Dec-08 02:53N 40°36' W 074°01'0 0.0
2017-Dec-08 02:29N 40°36' W 074°01'0 0.0
2017-Dec-08 01:53N 40°36' W 074°01'0 0.0
2017-Dec-08 01:29N 40°36' W 074°01'0 0.1
2017-Dec-08 00:59N 40°35' W 074°01'0 0.0
2017-Dec-08 00:17N 40°35' W 074°01'0 0.0
2017-Dec-07 23:38N 40°35' W 074°01'0 0.0
2017-Dec-07 23:29N 40°35' W 074°01'0 0.0
2017-Dec-07 22:59N 40°35' W 074°01'0 0.0
2017-Dec-07 22:20N 40°35' W 074°01'0 0.0
2017-Dec-07 21:41N 40°35' W 074°01'0 0.0
2017-Dec-07 21:29N 40°35' W 074°01'0 0.0
2017-Dec-07 20:56N 40°35' W 074°01'0 0.1
2017-Dec-07 20:29N 40°35' W 074°01'1 2.5
2017-Dec-07 19:59N 40°34' W 074°02'4 7.5
2017-Dec-07 19:29N 40°31' W 073°59'183 8.5
2017-Dec-06 21:51N 42°05' W 070°31'410.2
2017-Dec-06 21:30N 42°09' W 070°32'510.3
2017-Dec-06 21:00N 42°13' W 070°35'  
2017-Dec-04 10:31N 40°38' W 074°07'0 0.0
2017-Dec-04 10:01N 40°38' W 074°07'0 0.0
2017-Dec-04 09:31N 40°38' W 074°07'0 0.0
2017-Dec-04 09:01N 40°38' W 074°07'0 0.0
2017-Dec-04 08:31N 40°38' W 074°07'0 0.0
2017-Dec-04 08:00N 40°38' W 074°07'0 0.0
2017-Dec-04 07:30N 40°38' W 074°07'0 0.0
2017-Dec-04 07:01N 40°38' W 074°07'0 0.0
2017-Dec-04 06:30N 40°38' W 074°07'0 0.0
2017-Dec-04 06:00N 40°38' W 074°07'0 0.0
2017-Dec-04 05:30N 40°38' W 074°07'0 0.0
2017-Dec-04 05:01N 40°38' W 074°07'0 0.0
2017-Dec-04 04:30N 40°38' W 074°07'0 0.0
2017-Dec-04 04:00N 40°39' W 074°07'4 7.5
2017-Dec-04 03:30N 40°38' W 074°12'4 6.9
2017-Dec-04 02:53N 40°33' W 074°13'2 4.2
2017-Dec-04 02:30N 40°33' W 074°15'0 0.0
2017-Dec-04 02:00N 40°33' W 074°15'3 3.2
2017-Dec-04 01:04N 40°30' W 074°13'2 8.4
2017-Dec-04 00:51N 40°30' W 074°11'410.2
2017-Dec-04 00:26N 40°29' W 074°06'4 9.7
2017-Dec-04 00:01N 40°29' W 074°00'610.3
2017-Dec-03 23:28N 40°27' W 073°53'131 9.9
2017-Dec-03 10:17N 41°30' W 071°21'3 9.3
2017-Dec-03 09:59N 41°33' W 071°20'5 9.5
2017-Dec-03 09:30N 41°37' W 071°18'5 9.5
2017-Dec-03 09:00N 41°41' W 071°19'5 9.4
2017-Dec-03 08:30N 41°45' W 071°23'3 5.8
2017-Dec-03 08:00N 41°48' W 071°24'0 0.0
2017-Dec-02 16:38N 41°48' W 071°24'0 1.4
2017-Dec-02 16:18N 41°48' W 071°23'2 7.1
2017-Dec-02 16:00N 41°46' W 071°23'4 8.2
2017-Dec-02 15:30N 41°42' W 071°20'5 8.8
2017-Dec-02 14:59N 41°38' W 071°18'2 2.7
2017-Dec-02 14:22N 41°36' W 071°17'0 0.0
2017-Dec-02 13:40N 41°36' W 071°17'0 0.0
2017-Dec-02 13:28N 41°36' W 071°17'0 0.0
2017-Dec-02 12:58N 41°36' W 071°17'0 0.0
2017-Dec-02 12:28N 41°36' W 071°17'0 0.1
2017-Dec-02 11:58N 41°36' W 071°17'0 0.0
2017-Dec-02 07:52N 41°36' W 071°17'0 0.1
2017-Dec-02 07:28N 41°36' W 071°17'0 0.0
2017-Dec-02 06:58N 41°36' W 071°17'0 0.0
2017-Dec-02 06:22N 41°36' W 071°17'0 0.0
2017-Dec-02 05:58N 41°36' W 071°17'0 0.0
2017-Dec-02 05:22N 41°36' W 071°17'0 0.0
2017-Dec-02 05:00N 41°36' W 071°17'0 0.0
2017-Dec-02 04:30N 41°36' W 071°17'0 0.0
2017-Dec-02 04:00N 41°36' W 071°17'0 0.0
2017-Dec-02 03:28N 41°36' W 071°17'0 0.0
2017-Dec-02 03:00N 41°36' W 071°17'0 0.0
2017-Dec-02 02:30N 41°36' W 071°17'0 0.0
2017-Dec-02 02:00N 41°36' W 071°17'0 0.0
2017-Dec-02 01:30N 41°36' W 071°17'0 0.0
2017-Dec-02 00:58N 41°36' W 071°17'0 0.0
2017-Dec-02 00:30N 41°36' W 071°17'0 0.0
2017-Dec-01 23:58N 41°36' W 071°17'2 3.2
2017-Dec-01 23:21N 41°35' W 071°19'3 7.3
2017-Dec-01 22:55N 41°32' W 071°20'  

Dump ship's entire track history